Latest Weather Observations for Archerfield

IDQ60901

Issued at 12:41 pm EST Thursday 1 October 2020 (issued every 10 minutes, with the page automatically refreshed every 10 minutes)

About weather observations | Map of Brisbane area stations | Latest observations for Brisbane area | Other Formats
Station Details ID: 040211 Name: ARCHERFIELD AIRPORT Lat: -27.57 Lon: 153.01 Height: 12.5 m
Data from the previous 72 hours. | See also: Recent months at Archerfield
Date/Time
EST
Temp
°C
App
Temp
°C
Dew
Point
°C
Rel
Hum
%
Delta-T
°C
Wind Press
QNH
hPa
Press
MSL
hPa
Rain since
9am
mm
Dir  Spd
km/h
Gust
km/h
Spd
kts
Gust
kts
01/12:30pm 27.7 24.5 11.3 36 9.4 N 19 28 10 15 1017.5 1017.4 0.0
01/12:00pm 26.2 22.8 10.4 37 8.8 NNE 19 28 10 15 1017.9 1017.8 0.0
01/11:30am 26.2 23.9 9.1 34 9.3 NNW 11 19 6 10 1018.4 1018.3 0.0
01/11:00am 26.4 22.9 8.8 33 9.6 N 17 24 9 13 1018.7 1018.6 0.0
01/10:30am 26.0 22.7 9.4 35 9.1 NNE 17 24 9 13 1019.3 1019.2 0.0
01/10:00am 25.9 22.9 10.5 38 8.6 N 17 26 9 14 1019.7 1019.6 0.0
01/09:30am 23.7 22.0 11.1 45 7.0 NNW 11 17 6 9 1019.9 1019.8 0.0
01/09:00am 22.5 22.0 11.9 51 5.9 WNW 6 11 3 6 1020.2 1020.1 0.0
01/08:30am 21.1 20.5 11.7 55 5.2 WSW 6 9 3 5 1020.3 1020.2 0.0
01/08:00am 19.3 19.0 12.6 65 3.7 SSW 6 9 3 5 1020.4 1020.3 0.0
01/07:30am 16.7 15.6 12.0 74 2.6 SW 9 13 5 7 1020.5 1020.4 0.0
01/07:00am 15.7 15.2 12.1 79 2.0 SSE 6 7 3 4 1020.0 1019.9 0.0
01/06:30am 14.1 13.6 12.0 87 1.1 S 6 7 3 4 1019.8 1019.7 0.0
01/06:00am 12.4 12.7 10.8 90 0.8 CALM 0 0 0 0 1019.5 1019.4 0.0
01/05:30am 11.6 11.3 10.0 90 0.8 S 2 6 1 3 1019.2 1019.1 0.0
01/05:00am 11.3 10.1 9.4 88 1.0 S 6 9 3 5 1018.9 1018.8 0.0
01/04:30am 11.8 10.5 9.9 88 1.0 SSW 7 9 4 5 1018.5 1018.4 0.0
01/04:00am 12.1 10.6 10.5 90 0.8 S 9 9 5 5 1018.2 1018.1 0.0
01/03:30am 11.8 11.4 9.7 87 1.1 S 2 7 1 4 1018.2 1018.1 0.0
01/03:00am 12.6 11.4 10.3 86 1.2 S 7 9 4 5 1018.2 1018.1 0.0
01/02:30am 12.8 11.3 10.7 87 1.1 SSW 9 13 5 7 1018.2 1018.1 0.0
01/02:00am 13.4 12.0 10.9 85 1.3 S 9 11 5 6 1018.2 1018.1 0.0
01/01:30am 13.7 13.9 10.5 81 1.7 CALM 0 0 0 0 1018.3 1018.2 0.0
01/01:00am 15.4 14.5 10.8 74 2.4 NNE 6 7 3 4 1018.6 1018.5 0.0
01/12:30am 16.4 15.9 12.0 75 2.4 NNE 6 7 3 4 1018.9 1018.8 0.0
01/12:00am 15.8 15.0 11.8 77 2.2 NNE 7 9 4 5 1019.3 1019.2 0.0
 
Date/Time
EST
Temp
°C
App
Temp
°C
Dew
Point
°C
Rel
Hum
%
Delta-T
°C
Wind Press
QNH
hPa
Press
MSL
hPa
Rain since
9am
mm
Dir  Spd
km/h
Gust
km/h
Spd
kts
Gust
kts
30/11:30pm 16.1 15.1 12.3 78 2.1 NNE 9 11 5 6 1019.4 1019.3 0.0
30/11:00pm 16.0 14.5 12.0 77 2.2 N 11 15 6 8 1019.8 1019.7 0.0
30/10:30pm 15.9 14.7 11.7 76 2.3 NNE 9 11 5 6 1019.8 1019.7 0.0
30/10:00pm 16.8 14.9 11.9 73 2.7 NE 13 15 7 8 1019.6 1019.5 0.0
30/09:30pm 17.1 15.3 12.0 72 2.8 NE 13 15 7 8 1020.0 1019.9 0.0
30/09:00pm 17.1 15.5 11.4 69 3.1 NE 11 13 6 7 1020.3 1020.2 0.0
30/08:30pm 18.6 16.8 12.1 66 3.6 NE 13 17 7 9 1020.1 1020.0 0.0
30/08:00pm 18.7 17.2 11.8 64 3.8 NNE 11 15 6 8 1020.0 1019.9 0.0
30/07:30pm 19.4 16.9 12.2 63 4.0 NNE 17 20 9 11 1019.8 1019.7 0.0
30/07:00pm 19.6 16.7 12.4 63 4.0 NNE 19 22 10 12 1019.4 1019.3 0.0
30/06:30pm 19.2 16.6 12.0 63 4.0 NNE 17 20 9 11 1019.3 1019.2 0.0
30/06:00pm 19.6 16.6 11.9 61 4.3 NE 19 22 10 12 1018.7 1018.6 0.0
30/05:30pm 20.6 17.2 12.6 60 4.5 NNE 22 28 12 15 1018.5 1018.4 0.0
30/05:00pm 20.8 17.0 11.2 54 5.3 NE 22 26 12 14 1018.3 1018.2 0.0
30/04:30pm 21.6 18.0 10.4 49 6.1 NE 20 30 11 16 1018.4 1018.3 0.0
30/04:00pm 21.9 18.3 10.4 48 6.3 NNE 20 28 11 15 1018.3 1018.2 0.0
30/03:30pm 23.4 20.0 11.1 46 6.9 NNE 20 30 11 16 1018.4 1018.3 0.0
30/03:00pm 22.3 18.9 10.5 47 6.5 ENE 19 26 10 14 1018.3 1018.2 0.0
30/02:30pm 22.8 18.5 10.9 47 6.6 NE 24 33 13 18 1018.7 1018.6 0.0
30/02:00pm 23.0 19.9 10.4 45 6.9 NE 17 24 9 13 1019.0 1018.9 0.0
30/01:30pm 23.3 19.7 10.7 45 7.0 NE 20 30 11 16 1019.5 1019.4 0.0
30/01:00pm 24.1 19.8 10.7 43 7.4 ENE 24 35 13 19 1019.8 1019.7 0.0
30/12:30pm 23.1 19.9 9.8 43 7.2 NE 17 24 9 13 1020.3 1020.2 0.0
30/12:00pm 23.0 18.8 9.8 43 7.2 NE 22 30 12 16 1020.5 1020.4 0.0
30/11:30am 23.0 19.5 8.7 40 7.6 NNE 17 30 9 16 1021.0 1020.9 0.0
30/11:00am 23.8 20.1 9.4 40 7.8 NNE 19 33 10 18 1021.5 1021.4 0.0
30/10:30am 23.0 19.9 8.7 40 7.6 NNE 15 26 8 14 1021.8 1021.7 0.0
30/10:00am 22.8 18.6 7.4 37 8.0 NE 19 28 10 15 1022.1 1022.0 0.0
30/09:30am 22.4 20.4 6.2 35 8.2 ESE 6 13 3 7 1022.2 1022.1 0.0
30/09:00am 21.1 19.5 8.7 45 6.5 S 7 13 4 7 1022.4 1022.3 0.0
30/08:30am 18.5 17.1 8.7 53 5.1 SSW 6 9 3 5 1022.5 1022.4 0.0
30/08:00am 17.0 15.5 8.4 57 4.4 SSE 6 7 3 4 1022.7 1022.6 0.0
30/07:30am 16.0 14.7 7.7 58 4.2 SE 4 9 2 5 1022.5 1022.4 0.0
30/07:00am 13.4 13.1 8.5 72 2.4 CALM 0 4 0 2 1022.5 1022.4 0.0
30/06:30am 11.6 11.1 7.9 78 1.8 CALM 0 0 0 0 1022.3 1022.2 0.0
30/06:00am 10.2 9.6 7.3 82 1.4 CALM 0 0 0 0 1022.1 1022.0 0.0
30/05:30am 9.0 8.1 6.1 82 1.3 CALM 0 0 0 0 1021.7 1021.6 0.0
30/05:00am 9.8 7.7 6.5 80 1.5 SSW 7 9 4 5 1021.5 1021.4 0.0
30/04:30am 10.3 8.4 6.8 79 1.6 S 6 9 3 5 1021.3 1021.2 0.0
30/04:00am 10.2 8.3 6.9 80 1.5 SSW 6 7 3 4 1021.3 1021.2 0.0
30/03:30am 9.7 7.6 6.6 81 1.4 SSW 7 9 4 5 1021.4 1021.3 0.0
30/03:00am 10.4 8.1 7.3 81 1.5 SSW 9 11 5 6 1021.3 1021.2 0.0
30/02:30am 10.1 8.0 6.6 79 1.6 S 7 7 4 4 1021.3 1021.2 0.0
30/02:00am 10.7 10.1 7.2 79 1.7 CALM 0 0 0 0 1021.8 1021.7 0.0
30/01:30am 10.3 9.6 6.8 79 1.6 CALM 0 7 0 4 1022.1 1022.0 0.0
30/01:00am 11.2 9.1 6.5 73 2.2 SSE 7 9 4 5 1022.7 1022.6 0.0
30/12:30am 11.7 9.7 7.2 74 2.2 S 7 9 4 5 1023.2 1023.1 0.0
30/12:00am 11.4 9.5 6.9 74 2.1 SSW 6 7 3 4 1023.8 1023.8 0.0
 
Date/Time
EST
Temp
°C
App
Temp
°C
Dew
Point
°C
Rel
Hum
%
Delta-T
°C
Wind Press
QNH
hPa
Press
MSL
hPa
Rain since
9am
mm
Dir  Spd
km/h
Gust
km/h
Spd
kts
Gust
kts
29/11:30pm 11.1 8.8 5.8 70 2.5 SSE 7 11 4 6 1023.9 1023.9 0.0
29/11:00pm 12.7 10.0 7.4 70 2.6 S 11 13 6 7 1023.9 1023.9 0.0
29/10:30pm 13.5 11.4 6.8 64 3.2 S 7 11 4 6 1024.0 1024.0 0.0
29/10:00pm 14.3 12.3 7.1 62 3.5 S 7 9 4 5 1024.0 1024.0 0.0
29/09:30pm 14.1 12.6 6.7 61 3.6 S 4 7 2 4 1024.1 1024.1 0.0
29/09:00pm 14.8 14.0 6.4 57 4.0 CALM 0 0 0 0 1024.1 1024.1 0.0
29/08:30pm 15.2 13.1 6.0 54 4.4 NE 6 7 3 4 1023.9 1023.9 0.0
29/08:00pm 16.6 14.1 6.4 51 5.0 ESE 9 13 5 7 1023.7 1023.7 0.0
29/07:30pm 17.4 14.8 6.3 48 5.5 ESE 9 15 5 8 1023.4 1023.3 0.0
29/07:00pm 17.6 14.1 5.5 45 5.8 E 13 17 7 9 1023.2 1023.1 0.0
29/06:30pm 18.2 14.7 5.4 43 6.2 E 13 19 7 10 1022.9 1022.8 0.0
29/06:00pm 18.9 14.0 5.0 40 6.7 E 20 26 11 14 1022.6 1022.5 0.0
29/05:30pm 19.5 14.2 5.2 39 7.0 E 22 30 12 16 1022.6 1022.5 0.0
29/05:00pm 20.2 15.1 5.8 39 7.1 E 22 32 12 17 1022.2 1022.1 0.0
29/04:30pm 21.0 15.9 6.2 38 7.4 E 22 28 12 15 1021.9 1021.8 0.0
29/04:00pm 21.9 16.9 6.6 37 7.8 ESE 22 33 12 18 1021.5 1021.4 0.0
29/03:30pm 22.4 17.5 7.0 37 7.9 ESE 22 30 12 16 1021.2 1021.1 0.0
29/03:00pm 22.8 17.9 7.0 36 8.1 E 22 32 12 17 1021.3 1021.2 0.0
29/02:30pm 22.8 18.6 7.4 37 8.0 E 19 28 10 15 1021.5 1021.4 0.0
29/02:00pm 22.7 17.2 7.7 38 7.8 E 26 33 14 18 1021.9 1021.8 0.0
29/01:30pm 21.9 17.2 6.2 36 7.9 ESE 20 30 11 16 1022.3 1022.2 0.0
29/01:00pm 22.2 17.8 6.4 36 8.0 ESE 19 30 10 16 1022.8 1022.7 0.0
29/12:30pm 23.2 18.7 6.9 35 8.4 ESE 20 33 11 18 1023.2 1023.1 0.0
29/12:00pm 23.6 18.8 7.3 35 8.5 ESE 22 35 12 19 1023.6 1023.6 0.0
29/11:30am 22.0 17.2 5.8 35 8.1 SE 20 30 11 16 1024.3 1024.3 0.0
29/11:00am 22.2 18.3 7.2 38 7.7 ESE 17 26 9 14 1024.9 1024.9 0.0
29/10:30am 21.4 17.2 7.3 40 7.3 ESE 19 28 10 15 1025.3 1025.3 0.0
29/10:00am 20.7 16.4 8.0 44 6.6 SE 20 35 11 19 1025.4 1025.4 0.0
29/09:30am 22.3 18.5 9.1 43 7.1 SSE 19 28 10 15 1025.6 1025.6 0.0
29/09:00am 20.9 16.9 9.2 47 6.2 ESE 20 32 11 17 1025.7 1025.7 0.0
29/08:30am 20.2 16.4 9.2 49 5.8 SSE 19 28 10 15 1025.9 1025.9 0.0
29/08:00am 18.3 15.3 9.1 55 4.8 S 15 20 8 11 1025.7 1025.7 0.0
29/07:30am 17.6 15.4 9.2 58 4.4 SSE 11 19 6 10 1025.2 1025.2 0.0
29/07:00am 15.3 13.0 9.0 66 3.2 S 11 15 6 8 1025.0 1025.0 0.0
29/06:30am 14.3 12.4 9.1 71 2.6 S 9 13 5 7 1024.5 1024.5 0.0
29/06:00am 12.9 10.5 8.6 75 2.1 S 11 15 6 8 1023.9 1023.9 0.0
29/05:30am 11.8 9.9 7.7 76 2.0 SSW 7 9 4 5 1023.5 1023.5 0.0
29/05:00am 12.4 12.2 8.9 79 1.7 CALM 0 0 0 0 1023.1 1023.0 0.0
29/04:30am 11.8 11.5 8.5 80 1.6 CALM 0 0 0 0 1023.0 1022.9 0.0
29/04:00am 12.6 11.2 8.9 78 1.8 SSW 6 7 3 4 1023.0 1022.9 0.0
29/03:30am 12.1 10.1 8.6 79 1.7 SSW 9 9 5 5 1023.2 1023.1 0.0
29/03:00am 11.7 10.1 8.9 83 1.4 SSW 7 9 4 5 1023.3 1023.2 0.0
29/02:30am 11.2 9.6 8.8 85 1.2 SSW 7 9 4 5 1023.3 1023.2 0.0
29/02:00am 10.3 8.5 7.2 81 1.5 SSW 6 7 3 4 1023.6 1023.6 0.0
29/01:30am 11.3 10.9 8.3 82 1.5 CALM 0 0 0 0 1023.9 1023.9 0.0
29/01:00am 11.9 10.3 8.6 80 1.6 SW 7 9 4 5 1024.2 1024.2 0.0
29/12:30am 11.8 11.4 8.3 79 1.7 CALM 0 0 0 0 1024.6 1024.6 0.0
29/12:00am 12.5 12.1 8.4 76 2.0 CALM 0 0 0 0 1024.7 1024.7 0.0
 
Date/Time
EST
Temp
°C
App
Temp
°C
Dew
Point
°C
Rel
Hum
%
Delta-T
°C
Wind Press
QNH
hPa
Press
MSL
hPa
Rain since
9am
mm
Dir  Spd
km/h
Gust
km/h
Spd
kts
Gust
kts
28/11:30pm 11.7 11.0 8.4 80 1.6 WSW 2 6 1 3 1024.7 1024.7 0.0
28/11:00pm 12.7 11.3 8.8 77 1.9 SW 6 7 3 4 1024.8 1024.8 0.0
28/10:30pm 12.6 11.0 8.9 78 1.9 SSW 7 9 4 5 1024.8 1024.8 0.0
28/10:00pm 14.0 12.4 8.6 70 2.7 SSE 7 9 4 5 1024.8 1024.8 0.0
28/09:30pm 14.1 12.6 8.5 69 2.8 S 6 7 3 4 1025.0 1025.0 0.0
28/09:00pm 15.2 13.3 8.9 66 3.2 SSE 9 11 5 6 1025.1 1025.1 0.0
28/08:30pm 15.7 13.4 9.1 65 3.4 SSE 11 13 6 7 1025.1 1025.1 0.0
28/08:00pm 16.1 13.5 9.3 64 3.5 SE 13 19 7 10 1024.8 1024.8 0.0
28/07:30pm 16.8 13.2 10.0 64 3.6 SE 19 26 10 14 1024.5 1024.5 0.0
28/07:00pm 17.0 13.5 10.1 64 3.6 ESE 19 28 10 15 1024.2 1024.2 0.0
28/06:30pm 17.1 13.6 10.2 64 3.7 ESE 19 30 10 16 1024.0 1024.0 0.0
28/06:00pm 17.6 12.3 10.0 61 4.0 ESE 28 35 15 19 1023.6 1023.6 0.0
28/05:30pm 18.3 13.5 10.4 60 4.2 ESE 26 41 14 22 1023.2 1023.1 0.0
28/05:00pm 19.0 13.9 10.6 58 4.5 E 28 37 15 20 1022.8 1022.7 0.0
28/04:30pm 19.9 15.4 10.0 53 5.3 ESE 24 39 13 21 1022.3 1022.2 0.0
28/04:00pm 20.3 14.9 9.5 50 5.7 ESE 28 35 15 19 1022.0 1021.9 0.0
28/03:30pm 21.0 15.9 9.3 47 6.2 ESE 26 35 14 19 1021.7 1021.6 0.0
28/03:00pm 22.8 18.2 9.6 43 7.1 E 24 33 13 18 1021.8 1021.7 0.0
28/02:30pm 21.7 17.2 9.9 47 6.4 ESE 24 35 13 19 1021.8 1021.7 0.0
28/02:00pm 21.8 16.8 8.0 41 7.2 SE 24 39 13 21 1021.8 1021.7 0.0
28/01:30pm 23.1 18.7 7.6 37 8.1 ESE 20 30 11 16 1022.1 1022.0 0.0
28/01:00pm 22.0 18.0 8.2 41 7.2 SE 19 33 10 18 1022.4 1022.3 0.0

Latest Capital City Observations: Canberra | Sydney | Melbourne | Brisbane | Adelaide | Perth | Hobart | Darwin

Other formats

Comma delimited format used in spreadsheet applications
http://www.bom.gov.au/fwo/IDQ60901/IDQ60901.94575.axf

JavaScript Object Notation format (JSON) in row-major order
http://www.bom.gov.au/fwo/IDQ60901/IDQ60901.94575.json

Data quality

Most of these data are generated automatically and are frequently updated. Quality checks on data are not normally performed. It is possible for incorrect values to appear. Refer to information at About Latest Weather Observations and please check the disclaimer before using these data.